Big Bend, Colorado
Current Conditions -  °F | °C
As of 7:53 PM on Saturday 22 Nov 2014 (Local Time) from KLAA Reporting Station
Clear Clear  
Wind Chill: 37°   Ceiling: Unl
Heat Index: 42°   Visibility: 10mi
Dew Point: 25°   Wind: 9mph
Humidity: 51%   Direction: 200°SSW
Pressure: 29.5"   Gusts: NA
Location:  38.1951°N, 102.726°W
Report Text: KLAA 230253Z AUTO 20008KT 10SM CLR 06/M04 A2950 RMK AO2 SLP991 T00561039 56011
Loading
Personal Weather Stations






























Interactive Weather Map New forecast layout! Learn more

10-Day Weather Forecast

Advertisements
Track Severe Weather on mobile